sensor_id;sensor_type;location;lat;lon;timestamp;pressure;altitude;pressure_sealevel;temperature;humidity
32456;BME280;18912;43.270;27.942;2023-01-28T00:02:07;97251.91;;;6.15;94.24
32456;BME280;18912;43.270;27.942;2023-01-28T00:04:32;97251.34;;;6.39;93.33
32456;BME280;18912;43.270;27.942;2023-01-28T00:06:58;97258.53;;;6.25;94.01
32456;BME280;18912;43.270;27.942;2023-01-28T00:09:23;97262.25;;;6.31;93.13
32456;BME280;18912;43.270;27.942;2023-01-28T00:11:49;97268.09;;;6.41;93.16
32456;BME280;18912;43.270;27.942;2023-01-28T00:14:14;97250.72;;;6.30;93.09
32456;BME280;18912;43.270;27.942;2023-01-28T00:16:40;97246.53;;;6.15;93.34
32456;BME280;18912;43.270;27.942;2023-01-28T00:19:05;97267.78;;;6.16;93.74
32456;BME280;18912;43.270;27.942;2023-01-28T00:21:31;97275.94;;;6.36;93.13
32456;BME280;18912;43.270;27.942;2023-01-28T00:23:56;97269.22;;;6.12;93.70
32456;BME280;18912;43.270;27.942;2023-01-28T00:26:23;97279.00;;;6.33;93.41
32456;BME280;18912;43.270;27.942;2023-01-28T00:28:49;97275.88;;;6.29;93.01
32456;BME280;18912;43.270;27.942;2023-01-28T00:31:23;97287.19;;;6.18;93.10
32456;BME280;18912;43.270;27.942;2023-01-28T00:33:49;97287.66;;;6.28;92.82
32456;BME280;18912;43.270;27.942;2023-01-28T00:36:16;97286.41;;;6.24;92.52
32456;BME280;18912;43.270;27.942;2023-01-28T00:38:42;97284.88;;;6.09;92.98
32456;BME280;18912;43.270;27.942;2023-01-28T00:43:37;97287.78;;;6.14;93.44
32456;BME280;18912;43.270;27.942;2023-01-28T00:46:06;97279.72;;;6.07;93.16
32456;BME280;18912;43.270;27.942;2023-01-28T00:48:36;97277.09;;;6.20;93.10
32456;BME280;18912;43.270;27.942;2023-01-28T00:51:02;97286.03;;;6.34;91.89
32456;BME280;18912;43.270;27.942;2023-01-28T00:53:29;97287.53;;;6.02;93.20
32456;BME280;18912;43.270;27.942;2023-01-28T00:55:54;97288.16;;;6.04;94.21
32456;BME280;18912;43.270;27.942;2023-01-28T00:58:20;97287.34;;;6.04;93.78
32456;BME280;18912;43.270;27.942;2023-01-28T01:00:47;97294.75;;;6.02;93.81
32456;BME280;18912;43.270;27.942;2023-01-28T01:03:12;97295.41;;;6.04;93.65
32456;BME280;18912;43.270;27.942;2023-01-28T01:05:37;97293.50;;;6.04;94.22
32456;BME280;18912;43.270;27.942;2023-01-28T01:08:03;97302.59;;;5.76;96.11
32456;BME280;18912;43.270;27.942;2023-01-28T01:10:29;97299.13;;;5.75;95.68
32456;BME280;18912;43.270;27.942;2023-01-28T01:12:54;97298.69;;;5.72;95.93
32456;BME280;18912;43.270;27.942;2023-01-28T01:15:22;97304.47;;;5.75;96.10
32456;BME280;18912;43.270;27.942;2023-01-28T01:17:48;97307.91;;;5.97;94.91
32456;BME280;18912;43.270;27.942;2023-01-28T01:20:20;97308.22;;;5.81;94.75
32456;BME280;18912;43.270;27.942;2023-01-28T01:22:45;97312.06;;;5.99;94.37
32456;BME280;18912;43.270;27.942;2023-01-28T01:25:13;97316.53;;;5.86;94.21
32456;BME280;18912;43.270;27.942;2023-01-28T01:27:39;97311.06;;;5.72;94.94
32456;BME280;18912;43.270;27.942;2023-01-28T01:30:05;97316.97;;;5.61;95.74
32456;BME280;18912;43.270;27.942;2023-01-28T01:32:32;97319.78;;;5.53;96.22
32456;BME280;18912;43.270;27.942;2023-01-28T01:34:59;97323.53;;;5.59;96.86
32456;BME280;18912;43.270;27.942;2023-01-28T01:37:25;97320.25;;;5.36;97.35
32456;BME280;18912;43.270;27.942;2023-01-28T01:39:51;97317.19;;;5.66;96.77
32456;BME280;18912;43.270;27.942;2023-01-28T01:42:16;97325.03;;;5.40;96.61
32456;BME280;18912;43.270;27.942;2023-01-28T01:45:11;97326.19;;;5.52;96.80
32456;BME280;18912;43.270;27.942;2023-01-28T01:47:43;97329.78;;;5.66;95.02
32456;BME280;18912;43.270;27.942;2023-01-28T01:50:28;97333.19;;;5.53;95.25
32456;BME280;18912;43.270;27.942;2023-01-28T01:52:59;97337.28;;;5.49;94.88
32456;BME280;18912;43.270;27.942;2023-01-28T01:55:30;97340.59;;;5.51;95.20
32456;BME280;18912;43.270;27.942;2023-01-28T01:58:00;97351.66;;;5.00;96.64
32456;BME280;18912;43.270;27.942;2023-01-28T02:00:26;97354.09;;;4.59;97.25
32456;BME280;18912;43.270;27.942;2023-01-28T02:02:52;97346.31;;;4.64;98.07
32456;BME280;18912;43.270;27.942;2023-01-28T02:05:20;97343.28;;;4.67;96.96
32456;BME280;18912;43.270;27.942;2023-01-28T02:07:49;97353.22;;;4.73;96.24
32456;BME280;18912;43.270;27.942;2023-01-28T02:10:16;97353.47;;;4.57;96.98
32456;BME280;18912;43.270;27.942;2023-01-28T02:12:47;97351.88;;;4.62;96.45
32456;BME280;18912;43.270;27.942;2023-01-28T02:15:23;97355.00;;;4.66;95.53
32456;BME280;18912;43.270;27.942;2023-01-28T02:17:50;97351.97;;;4.54;95.33
32456;BME280;18912;43.270;27.942;2023-01-28T02:20:45;97361.28;;;4.58;95.35
32456;BME280;18912;43.270;27.942;2023-01-28T02:28:40;97377.78;;;4.12;95.95
32456;BME280;18912;43.270;27.942;2023-01-28T02:31:38;97370.81;;;4.46;94.03
32456;BME280;18912;43.270;27.942;2023-01-28T02:34:20;97372.03;;;4.44;93.74
32456;BME280;18912;43.270;27.942;2023-01-28T02:39:26;97379.44;;;4.13;94.34
32456;BME280;18912;43.270;27.942;2023-01-28T02:42:01;97377.75;;;4.26;94.62
32456;BME280;18912;43.270;27.942;2023-01-28T02:44:28;97386.56;;;4.56;92.98
32456;BME280;18912;43.270;27.942;2023-01-28T02:46:53;97390.47;;;4.39;92.01
32456;BME280;18912;43.270;27.942;2023-01-28T02:49:39;97385.31;;;4.52;91.51
32456;BME280;18912;43.270;27.942;2023-01-28T02:52:28;97388.19;;;4.21;92.60
32456;BME280;18912;43.270;27.942;2023-01-28T02:55:38;97388.09;;;4.15;92.03
32456;BME280;18912;43.270;27.942;2023-01-28T03:01:38;97399.34;;;3.96;93.04
32456;BME280;18912;43.270;27.942;2023-01-28T03:04:18;97402.31;;;4.01;92.50
32456;BME280;18912;43.270;27.942;2023-01-28T03:06:51;97401.66;;;3.99;92.06
32456;BME280;18912;43.270;27.942;2023-01-28T03:09:18;97392.28;;;3.65;93.60
32456;BME280;18912;43.270;27.942;2023-01-28T03:12:21;97402.47;;;3.85;92.88
32456;BME280;18912;43.270;27.942;2023-01-28T03:15:14;97397.44;;;3.52;93.90
32456;BME280;18912;43.270;27.942;2023-01-28T03:21:03;97400.16;;;3.44;94.02
32456;BME280;18912;43.270;27.942;2023-01-28T03:27:35;97405.22;;;3.76;91.43
32456;BME280;18912;43.270;27.942;2023-01-28T03:30:26;97401.28;;;3.50;92.42
32456;BME280;18912;43.270;27.942;2023-01-28T03:33:10;97407.06;;;3.39;92.85
32456;BME280;18912;43.270;27.942;2023-01-28T03:35:55;97402.66;;;3.46;92.85
32456;BME280;18912;43.270;27.942;2023-01-28T03:38:42;97401.94;;;3.52;91.63
32456;BME280;18912;43.270;27.942;2023-01-28T03:41:19;97409.03;;;3.59;91.94
32456;BME280;18912;43.270;27.942;2023-01-28T03:43:45;97409.13;;;3.89;90.06
32456;BME280;18912;43.270;27.942;2023-01-28T03:46:11;97414.88;;;3.40;91.59
32456;BME280;18912;43.270;27.942;2023-01-28T03:48:36;97416.63;;;3.33;92.63
32456;BME280;18912;43.270;27.942;2023-01-28T03:51:02;97433.78;;;3.39;91.85
32456;BME280;18912;43.270;27.942;2023-01-28T03:53:28;97424.41;;;3.20;92.64
32456;BME280;18912;43.270;27.942;2023-01-28T03:55:53;97424.75;;;3.40;91.67
32456;BME280;18912;43.270;27.942;2023-01-28T03:58:21;97426.69;;;3.46;91.22
32456;BME280;18912;43.270;27.942;2023-01-28T04:00:51;97436.47;;;3.53;91.24
32456;BME280;18912;43.270;27.942;2023-01-28T04:03:18;97430.34;;;3.30;91.72
32456;BME280;18912;43.270;27.942;2023-01-28T04:06:05;97433.81;;;3.53;90.99
32456;BME280;18912;43.270;27.942;2023-01-28T04:08:31;97437.13;;;3.55;91.38
32456;BME280;18912;43.270;27.942;2023-01-28T04:10:57;97440.41;;;3.65;90.22
32456;BME280;18912;43.270;27.942;2023-01-28T04:13:22;97448.84;;;3.54;90.80
32456;BME280;18912;43.270;27.942;2023-01-28T04:15:48;97451.47;;;3.62;90.13
32456;BME280;18912;43.270;27.942;2023-01-28T04:18:14;97456.66;;;3.78;89.59
32456;BME280;18912;43.270;27.942;2023-01-28T04:20:39;97451.31;;;3.78;89.58
32456;BME280;18912;43.270;27.942;2023-01-28T04:23:05;97457.28;;;3.43;89.23
32456;BME280;18912;43.270;27.942;2023-01-28T04:25:32;97466.44;;;3.86;88.06
32456;BME280;18912;43.270;27.942;2023-01-28T04:27:58;97465.22;;;3.74;87.33
32456;BME280;18912;43.270;27.942;2023-01-28T04:30:23;97462.25;;;3.46;88.79
32456;BME280;18912;43.270;27.942;2023-01-28T04:32:49;97469.38;;;3.31;88.89
32456;BME280;18912;43.270;27.942;2023-01-28T04:35:15;97472.94;;;3.24;88.66
32456;BME280;18912;43.270;27.942;2023-01-28T04:37:41;97469.84;;;3.35;88.26
32456;BME280;18912;43.270;27.942;2023-01-28T04:40:07;97468.41;;;3.32;89.09
32456;BME280;18912;43.270;27.942;2023-01-28T04:42:32;97471.13;;;3.24;88.97
32456;BME280;18912;43.270;27.942;2023-01-28T04:44:58;97477.78;;;3.28;89.14
32456;BME280;18912;43.270;27.942;2023-01-28T04:47:23;97466.09;;;2.99;90.30
32456;BME280;18912;43.270;27.942;2023-01-28T04:49:49;97475.69;;;3.38;89.19
32456;BME280;18912;43.270;27.942;2023-01-28T04:52:14;97479.84;;;3.18;89.47
32456;BME280;18912;43.270;27.942;2023-01-28T04:54:40;97467.09;;;3.28;88.75
32456;BME280;18912;43.270;27.942;2023-01-28T04:57:05;97477.44;;;3.01;89.47
32456;BME280;18912;43.270;27.942;2023-01-28T04:59:30;97479.88;;;2.79;91.13
32456;BME280;18912;43.270;27.942;2023-01-28T05:01:56;97487.19;;;3.16;89.74
32456;BME280;18912;43.270;27.942;2023-01-28T05:04:21;97485.81;;;3.20;89.67
32456;BME280;18912;43.270;27.942;2023-01-28T05:06:47;97498.44;;;3.04;89.69
32456;BME280;18912;43.270;27.942;2023-01-28T05:09:12;97504.41;;;2.83;91.08
32456;BME280;18912;43.270;27.942;2023-01-28T05:11:38;97500.63;;;3.00;90.60
32456;BME280;18912;43.270;27.942;2023-01-28T05:14:03;97497.31;;;2.98;91.13
32456;BME280;18912;43.270;27.942;2023-01-28T05:16:29;97499.88;;;2.83;90.89
32456;BME280;18912;43.270;27.942;2023-01-28T05:18:54;97508.44;;;2.71;91.38
32456;BME280;18912;43.270;27.942;2023-01-28T05:21:20;97507.75;;;2.77;91.08
32456;BME280;18912;43.270;27.942;2023-01-28T05:23:45;97512.41;;;2.83;91.35
32456;BME280;18912;43.270;27.942;2023-01-28T05:26:11;97514.06;;;2.76;91.32
32456;BME280;18912;43.270;27.942;2023-01-28T05:28:36;97519.75;;;2.81;91.49
32456;BME280;18912;43.270;27.942;2023-01-28T05:31:03;97527.44;;;2.68;91.65
32456;BME280;18912;43.270;27.942;2023-01-28T05:33:29;97542.06;;;2.88;90.42
32456;BME280;18912;43.270;27.942;2023-01-28T05:35:54;97537.47;;;3.05;90.39
32456;BME280;18912;43.270;27.942;2023-01-28T05:38:20;97541.09;;;2.81;90.96
32456;BME280;18912;43.270;27.942;2023-01-28T05:40:46;97547.00;;;2.99;90.88
32456;BME280;18912;43.270;27.942;2023-01-28T05:43:12;97553.50;;;3.05;89.96
32456;BME280;18912;43.270;27.942;2023-01-28T05:45:37;97547.94;;;2.75;90.66
32456;BME280;18912;43.270;27.942;2023-01-28T05:48:03;97552.16;;;3.09;89.78
32456;BME280;18912;43.270;27.942;2023-01-28T05:50:28;97560.00;;;2.55;91.37
32456;BME280;18912;43.270;27.942;2023-01-28T05:52:54;97557.44;;;2.78;92.11
32456;BME280;18912;43.270;27.942;2023-01-28T05:55:19;97557.47;;;3.17;89.86
32456;BME280;18912;43.270;27.942;2023-01-28T05:57:45;97563.81;;;2.69;90.58
32456;BME280;18912;43.270;27.942;2023-01-28T06:00:10;97574.69;;;3.37;88.77
32456;BME280;18912;43.270;27.942;2023-01-28T06:02:36;97576.03;;;3.63;87.59
32456;BME280;18912;43.270;27.942;2023-01-28T06:05:02;97563.50;;;3.41;88.27
32456;BME280;18912;43.270;27.942;2023-01-28T06:07:27;97584.63;;;3.28;88.71
32456;BME280;18912;43.270;27.942;2023-01-28T06:09:53;97593.50;;;3.51;87.95
32456;BME280;18912;43.270;27.942;2023-01-28T06:12:18;97595.19;;;3.44;87.45
32456;BME280;18912;43.270;27.942;2023-01-28T06:14:44;97594.66;;;3.18;88.44
32456;BME280;18912;43.270;27.942;2023-01-28T06:17:09;97599.63;;;3.29;88.16
32456;BME280;18912;43.270;27.942;2023-01-28T06:19:34;97598.66;;;3.22;87.88
32456;BME280;18912;43.270;27.942;2023-01-28T06:22:00;97608.56;;;3.44;87.95
32456;BME280;18912;43.270;27.942;2023-01-28T06:24:25;97607.34;;;3.24;87.71
32456;BME280;18912;43.270;27.942;2023-01-28T06:26:51;97608.44;;;3.38;87.32
32456;BME280;18912;43.270;27.942;2023-01-28T06:29:16;97618.34;;;3.21;87.67
32456;BME280;18912;43.270;27.942;2023-01-28T06:31:42;97614.47;;;3.32;87.73
32456;BME280;18912;43.270;27.942;2023-01-28T06:34:08;97607.81;;;3.28;87.08
32456;BME280;18912;43.270;27.942;2023-01-28T06:36:35;97621.13;;;2.97;88.79
32456;BME280;18912;43.270;27.942;2023-01-28T06:39:03;97628.63;;;3.02;88.58
32456;BME280;18912;43.270;27.942;2023-01-28T06:41:29;97627.59;;;3.03;88.15
32456;BME280;18912;43.270;27.942;2023-01-28T06:43:55;97623.19;;;3.18;87.73
32456;BME280;18912;43.270;27.942;2023-01-28T06:46:20;97631.00;;;2.89;88.45
32456;BME280;18912;43.270;27.942;2023-01-28T06:48:46;97635.69;;;3.25;87.24
32456;BME280;18912;43.270;27.942;2023-01-28T06:51:11;97630.22;;;3.19;87.13
32456;BME280;18912;43.270;27.942;2023-01-28T06:53:37;97640.84;;;2.88;87.69
32456;BME280;18912;43.270;27.942;2023-01-28T06:56:02;97636.97;;;3.45;86.31
32456;BME280;18912;43.270;27.942;2023-01-28T06:58:28;97648.06;;;3.26;86.46
32456;BME280;18912;43.270;27.942;2023-01-28T07:00:53;97651.31;;;3.44;86.83
32456;BME280;18912;43.270;27.942;2023-01-28T07:03:19;97648.03;;;3.65;86.27
32456;BME280;18912;43.270;27.942;2023-01-28T07:05:45;97640.19;;;3.63;85.86
32456;BME280;18912;43.270;27.942;2023-01-28T07:08:10;97641.03;;;3.64;85.80
32456;BME280;18912;43.270;27.942;2023-01-28T07:10:36;97638.47;;;3.70;84.64
32456;BME280;18912;43.270;27.942;2023-01-28T07:13:01;97639.56;;;3.53;85.40
32456;BME280;18912;43.270;27.942;2023-01-28T07:15:27;97647.31;;;3.40;86.46
32456;BME280;18912;43.270;27.942;2023-01-28T07:17:53;97643.75;;;3.56;84.33
32456;BME280;18912;43.270;27.942;2023-01-28T07:20:18;97648.91;;;3.57;84.77
32456;BME280;18912;43.270;27.942;2023-01-28T07:22:44;97651.66;;;3.41;85.46
32456;BME280;18912;43.270;27.942;2023-01-28T07:25:11;97653.69;;;3.70;84.80
32456;BME280;18912;43.270;27.942;2023-01-28T07:27:37;97665.34;;;3.77;84.10
32456;BME280;18912;43.270;27.942;2023-01-28T07:30:03;97667.00;;;3.47;84.84
32456;BME280;18912;43.270;27.942;2023-01-28T07:32:29;97663.47;;;3.55;84.33
32456;BME280;18912;43.270;27.942;2023-01-28T07:34:55;97660.38;;;3.27;85.34
32456;BME280;18912;43.270;27.942;2023-01-28T07:37:20;97661.50;;;3.41;85.78
32456;BME280;18912;43.270;27.942;2023-01-28T07:39:46;97655.53;;;3.69;84.21
32456;BME280;18912;43.270;27.942;2023-01-28T07:42:11;97651.53;;;3.65;84.83
32456;BME280;18912;43.270;27.942;2023-01-28T07:44:37;97658.00;;;4.02;83.95
32456;BME280;18912;43.270;27.942;2023-01-28T07:47:04;97648.56;;;3.91;84.95
32456;BME280;18912;43.270;27.942;2023-01-28T07:49:29;97645.09;;;4.28;83.05
32456;BME280;18912;43.270;27.942;2023-01-28T07:51:55;97645.72;;;4.15;82.69
32456;BME280;18912;43.270;27.942;2023-01-28T07:54:20;97647.38;;;4.16;82.86
32456;BME280;18912;43.270;27.942;2023-01-28T07:56:46;97641.03;;;4.17;83.22
32456;BME280;18912;43.270;27.942;2023-01-28T07:59:12;97644.50;;;3.95;85.24
32456;BME280;18912;43.270;27.942;2023-01-28T08:01:37;97633.91;;;4.47;83.81
32456;BME280;18912;43.270;27.942;2023-01-28T08:04:03;97636.72;;;4.68;82.14
32456;BME280;18912;43.270;27.942;2023-01-28T08:06:29;97638.88;;;4.72;81.63
32456;BME280;18912;43.270;27.942;2023-01-28T08:08:54;97638.47;;;5.13;80.14
32456;BME280;18912;43.270;27.942;2023-01-28T08:11:20;97643.16;;;5.11;79.26
32456;BME280;18912;43.270;27.942;2023-01-28T08:13:45;97654.31;;;4.85;80.03
32456;BME280;18912;43.270;27.942;2023-01-28T08:16:12;97654.38;;;4.77;80.32
32456;BME280;18912;43.270;27.942;2023-01-28T08:18:38;97663.03;;;5.16;79.64
32456;BME280;18912;43.270;27.942;2023-01-28T08:21:03;97667.50;;;4.87;79.27
32456;BME280;18912;43.270;27.942;2023-01-28T08:23:29;97667.91;;;4.61;80.01
32456;BME280;18912;43.270;27.942;2023-01-28T08:25:57;97669.44;;;4.78;79.15
32456;BME280;18912;43.270;27.942;2023-01-28T08:28:23;97670.50;;;5.06;79.59
32456;BME280;18912;43.270;27.942;2023-01-28T08:30:49;97675.28;;;4.96;79.45
32456;BME280;18912;43.270;27.942;2023-01-28T08:33:15;97673.28;;;5.13;78.43
32456;BME280;18912;43.270;27.942;2023-01-28T08:35:41;97684.63;;;5.00;77.23
32456;BME280;18912;43.270;27.942;2023-01-28T08:38:07;97679.19;;;5.23;77.33
32456;BME280;18912;43.270;27.942;2023-01-28T08:40:34;97675.28;;;4.96;77.77
32456;BME280;18912;43.270;27.942;2023-01-28T08:43:00;97659.59;;;4.93;77.53
32456;BME280;18912;43.270;27.942;2023-01-28T08:45:26;97686.22;;;4.72;77.89
32456;BME280;18912;43.270;27.942;2023-01-28T08:47:57;97694.44;;;4.70;77.42
32456;BME280;18912;43.270;27.942;2023-01-28T08:50:25;97700.97;;;4.68;77.45
32456;BME280;18912;43.270;27.942;2023-01-28T08:52:59;97686.72;;;4.53;77.39
32456;BME280;18912;43.270;27.942;2023-01-28T08:55:26;97678.84;;;4.74;77.79
32456;BME280;18912;43.270;27.942;2023-01-28T08:57:52;97682.63;;;4.80;78.01
32456;BME280;18912;43.270;27.942;2023-01-28T09:00:18;97672.69;;;4.88;77.18
32456;BME280;18912;43.270;27.942;2023-01-28T09:02:44;97667.44;;;4.12;78.64
32456;BME280;18912;43.270;27.942;2023-01-28T09:05:09;97671.84;;;4.50;78.68
32456;BME280;18912;43.270;27.942;2023-01-28T09:07:36;97668.41;;;4.42;78.60
32456;BME280;18912;43.270;27.942;2023-01-28T09:10:01;97673.16;;;4.32;79.08
32456;BME280;18912;43.270;27.942;2023-01-28T09:12:28;97678.09;;;4.43;78.28
32456;BME280;18912;43.270;27.942;2023-01-28T09:14:53;97665.63;;;4.13;79.58
32456;BME280;18912;43.270;27.942;2023-01-28T09:17:19;97667.22;;;4.22;79.65
32456;BME280;18912;43.270;27.942;2023-01-28T09:19:45;97664.00;;;4.49;78.19
32456;BME280;18912;43.270;27.942;2023-01-28T09:22:11;97658.84;;;4.25;78.76
32456;BME280;18912;43.270;27.942;2023-01-28T09:24:36;97669.13;;;4.36;79.29
32456;BME280;18912;43.270;27.942;2023-01-28T09:27:02;97662.84;;;4.06;80.15
32456;BME280;18912;43.270;27.942;2023-01-28T09:29:27;97660.81;;;3.86;81.45
32456;BME280;18912;43.270;27.942;2023-01-28T09:31:53;97669.13;;;3.91;82.25
32456;BME280;18912;43.270;27.942;2023-01-28T09:34:19;97667.94;;;4.16;81.41
32456;BME280;18912;43.270;27.942;2023-01-28T09:36:44;97678.16;;;4.12;80.79
32456;BME280;18912;43.270;27.942;2023-01-28T09:39:10;97667.59;;;3.57;82.32
32456;BME280;18912;43.270;27.942;2023-01-28T09:44:41;97671.69;;;3.45;83.32
32456;BME280;18912;43.270;27.942;2023-01-28T09:47:25;97668.53;;;3.72;82.76
32456;BME280;18912;43.270;27.942;2023-01-28T09:49:54;97678.63;;;3.62;81.96
32456;BME280;18912;43.270;27.942;2023-01-28T09:52:23;97698.28;;;3.69;82.84
32456;BME280;18912;43.270;27.942;2023-01-28T09:55:52;97700.53;;;3.50;82.59
32456;BME280;18912;43.270;27.942;2023-01-28T09:57:51;97696.47;;;3.70;81.77
32456;BME280;18912;43.270;27.942;2023-01-28T10:00:21;97696.59;;;3.38;83.23
32456;BME280;18912;43.270;27.942;2023-01-28T10:08:47;97696.28;;;3.71;82.00
32456;BME280;18912;43.270;27.942;2023-01-28T10:11:37;97680.03;;;3.81;81.26
32456;BME280;18912;43.270;27.942;2023-01-28T10:14:24;97681.72;;;4.05;80.26
32456;BME280;18912;43.270;27.942;2023-01-28T10:19:49;97687.06;;;4.05;80.24
32456;BME280;18912;43.270;27.942;2023-01-28T10:22:21;97695.81;;;3.99;80.94
32456;BME280;18912;43.270;27.942;2023-01-28T10:24:56;97684.03;;;4.08;80.72
32456;BME280;18912;43.270;27.942;2023-01-28T10:27:27;97677.09;;;4.21;80.42
32456;BME280;18912;43.270;27.942;2023-01-28T10:29:54;97679.78;;;4.21;79.65
32456;BME280;18912;43.270;27.942;2023-01-28T10:32:33;97677.03;;;4.52;78.04
32456;BME280;18912;43.270;27.942;2023-01-28T10:35:00;97687.78;;;4.66;77.86
32456;BME280;18912;43.270;27.942;2023-01-28T10:37:28;97681.34;;;4.90;77.73
32456;BME280;18912;43.270;27.942;2023-01-28T10:39:58;97681.00;;;4.93;77.20
32456;BME280;18912;43.270;27.942;2023-01-28T10:42:29;97683.25;;;4.67;77.71
32456;BME280;18912;43.270;27.942;2023-01-28T10:47:40;97671.16;;;5.08;75.53
32456;BME280;18912;43.270;27.942;2023-01-28T10:50:16;97678.25;;;5.30;75.31
32456;BME280;18912;43.270;27.942;2023-01-28T10:52:56;97687.13;;;5.45;73.15
32456;BME280;18912;43.270;27.942;2023-01-28T10:55:28;97682.25;;;5.05;73.47
32456;BME280;18912;43.270;27.942;2023-01-28T10:57:55;97699.41;;;5.11;72.89
32456;BME280;18912;43.270;27.942;2023-01-28T11:02:48;97699.75;;;4.93;73.85
32456;BME280;18912;43.270;27.942;2023-01-28T11:05:23;97699.44;;;4.73;74.62
32456;BME280;18912;43.270;27.942;2023-01-28T11:08:12;97700.31;;;4.66;74.48
32456;BME280;18912;43.270;27.942;2023-01-28T11:10:39;97691.69;;;4.56;75.65
32456;BME280;18912;43.270;27.942;2023-01-28T11:13:11;97695.50;;;4.39;75.34
32456;BME280;18912;43.270;27.942;2023-01-28T11:15:48;97694.94;;;4.51;75.65
32456;BME280;18912;43.270;27.942;2023-01-28T11:18:23;97696.53;;;4.38;75.65
32456;BME280;18912;43.270;27.942;2023-01-28T11:21:20;97701.00;;;4.45;76.50
32456;BME280;18912;43.270;27.942;2023-01-28T11:24:03;97693.25;;;4.28;76.53
32456;BME280;18912;43.270;27.942;2023-01-28T11:26:33;97691.13;;;4.01;77.23
32456;BME280;18912;43.270;27.942;2023-01-28T11:29:00;97702.78;;;4.08;76.91
32456;BME280;18912;43.270;27.942;2023-01-28T11:31:26;97701.09;;;4.07;77.30
32456;BME280;18912;43.270;27.942;2023-01-28T11:33:55;97690.41;;;4.29;77.00
32456;BME280;18912;43.270;27.942;2023-01-28T11:36:24;97696.47;;;3.70;78.39
32456;BME280;18912;43.270;27.942;2023-01-28T11:38:53;97692.09;;;3.69;79.10
32456;BME280;18912;43.270;27.942;2023-01-28T11:41:35;97694.41;;;3.41;80.37
32456;BME280;18912;43.270;27.942;2023-01-28T11:44:27;97690.72;;;3.81;79.44
32456;BME280;18912;43.270;27.942;2023-01-28T11:54:55;97695.97;;;3.97;80.00
32456;BME280;18912;43.270;27.942;2023-01-28T12:11:55;97703.69;;;3.07;83.04
32456;BME280;18912;43.270;27.942;2023-01-28T12:31:04;97730.69;;;3.28;81.60
32456;BME280;18912;43.270;27.942;2023-01-28T12:41:40;97732.38;;;3.13;82.38
32456;BME280;18912;43.270;27.942;2023-01-28T12:44:14;97733.81;;;3.39;81.67
32456;BME280;18912;43.270;27.942;2023-01-28T12:46:56;97732.69;;;3.18;81.79
32456;BME280;18912;43.270;27.942;2023-01-28T12:49:31;97740.34;;;3.37;81.09
32456;BME280;18912;43.270;27.942;2023-01-28T12:52:03;97734.50;;;3.80;79.87
32456;BME280;18912;43.270;27.942;2023-01-28T12:54:40;97743.91;;;3.76;79.29
32456;BME280;18912;43.270;27.942;2023-01-28T12:57:18;97750.59;;;3.17;81.73
32456;BME280;18912;43.270;27.942;2023-01-28T12:59:56;97744.59;;;3.62;80.86
32456;BME280;18912;43.270;27.942;2023-01-28T13:02:26;97750.06;;;3.76;79.86
32456;BME280;18912;43.270;27.942;2023-01-28T13:05:03;97742.75;;;4.01;78.96
32456;BME280;18912;43.270;27.942;2023-01-28T13:07:54;97748.91;;;3.71;78.74
32456;BME280;18912;43.270;27.942;2023-01-28T13:10:37;97769.66;;;3.61;79.89
32456;BME280;18912;43.270;27.942;2023-01-28T13:13:05;97751.19;;;3.43;80.15
32456;BME280;18912;43.270;27.942;2023-01-28T13:15:31;97756.16;;;3.46;80.36
32456;BME280;18912;43.270;27.942;2023-01-28T13:18:03;97762.25;;;3.08;80.85
32456;BME280;18912;43.270;27.942;2023-01-28T13:20:49;97778.88;;;3.50;80.27
32456;BME280;18912;43.270;27.942;2023-01-28T13:25:56;97793.44;;;3.40;80.30
32456;BME280;18912;43.270;27.942;2023-01-28T13:28:33;97797.50;;;3.74;78.64
32456;BME280;18912;43.270;27.942;2023-01-28T13:31:03;97803.59;;;3.44;78.90
32456;BME280;18912;43.270;27.942;2023-01-28T13:33:32;97810.09;;;3.58;78.73
32456;BME280;18912;43.270;27.942;2023-01-28T13:36:03;97812.72;;;3.74;77.96
32456;BME280;18912;43.270;27.942;2023-01-28T13:38:33;97814.28;;;3.44;78.71
32456;BME280;18912;43.270;27.942;2023-01-28T13:40:59;97821.25;;;3.69;78.15
32456;BME280;18912;43.270;27.942;2023-01-28T13:43:38;97824.84;;;4.01;77.14
32456;BME280;18912;43.270;27.942;2023-01-28T13:46:07;97822.00;;;3.39;78.53
32456;BME280;18912;43.270;27.942;2023-01-28T13:48:44;97820.09;;;3.72;78.07
32456;BME280;18912;43.270;27.942;2023-01-28T13:53:56;97825.09;;;3.67;77.42
32456;BME280;18912;43.270;27.942;2023-01-28T13:56:30;97831.00;;;3.46;78.15
32456;BME280;18912;43.270;27.942;2023-01-28T13:59:08;97828.44;;;3.61;78.00
32456;BME280;18912;43.270;27.942;2023-01-28T14:01:58;97835.03;;;3.26;79.02
32456;BME280;18912;43.270;27.942;2023-01-28T14:07:44;97833.69;;;3.06;80.63
32456;BME280;18912;43.270;27.942;2023-01-28T14:18:47;97841.00;;;3.36;78.65
32456;BME280;18912;43.270;27.942;2023-01-28T14:21:16;97849.63;;;3.70;77.70
32456;BME280;18912;43.270;27.942;2023-01-28T14:23:49;97856.56;;;3.33;78.69
32456;BME280;18912;43.270;27.942;2023-01-28T14:32:25;97854.88;;;3.16;79.27
32456;BME280;18912;43.270;27.942;2023-01-28T14:34:52;97857.22;;;3.59;78.06
32456;BME280;18912;43.270;27.942;2023-01-28T14:37:19;97867.72;;;3.60;77.76
32456;BME280;18912;43.270;27.942;2023-01-28T14:39:51;97872.66;;;3.88;77.28
32456;BME280;18912;43.270;27.942;2023-01-28T14:42:22;97877.03;;;3.72;77.25
32456;BME280;18912;43.270;27.942;2023-01-28T14:47:41;97873.59;;;3.24;78.54
32456;BME280;18912;43.270;27.942;2023-01-28T14:50:27;97875.41;;;3.23;80.29
32456;BME280;18912;43.270;27.942;2023-01-28T14:56:01;97878.25;;;3.14;79.94
32456;BME280;18912;43.270;27.942;2023-01-28T14:58:40;97873.75;;;3.22;79.63
32456;BME280;18912;43.270;27.942;2023-01-28T15:01:20;97878.44;;;3.20;79.68
32456;BME280;18912;43.270;27.942;2023-01-28T15:03:46;97880.41;;;3.42;78.53
32456;BME280;18912;43.270;27.942;2023-01-28T15:06:15;97883.75;;;3.36;78.53
32456;BME280;18912;43.270;27.942;2023-01-28T15:08:40;97876.91;;;3.58;77.99